Time;durP1;ratioP1;P1;durP2;ratioP2;P2;SDS_P1;SDS_P2;PMS_P1;PMS_P2;Temp;Humidity;BMP_temperature;BMP_pressure;BME280_temperature;BME280_humidity;BME280_pressure;Samples;Min_cycle;Max_cycle;Signal;HPM_P1;HPM_P2
2021/04/01 00:02:07;;;;;;;22.30;10.45;;;16.60;43.90;;;;;;5041528;28;20166;-77
2021/04/01 00:04:34;;;;;;;46.83;16.15;;;16.40;44.50;;;;;;5044696;28;20357;-78
2021/04/01 00:07:00;;;;;;;20.80;9.80;;;16.20;45.40;;;;;;5042542;28;20069;-78
2021/04/01 00:09:27;;;;;;;11.80;7.43;;;16.10;44.90;;;;;;5040147;28;20159;-78
2021/04/01 00:11:53;;;;;;;13.85;7.13;;;16.20;45.00;;;;;;5039650;28;20040;-77
2021/04/01 00:14:23;;;;;;;16.15;7.10;;;16.20;44.90;;;;;;5049187;28;20052;-76
2021/04/01 00:16:50;;;;;;;13.48;7.55;;;16.10;44.70;;;;;;5037205;28;20444;-77
2021/04/01 00:19:16;;;;;;;14.23;6.72;;;16.10;44.80;;;;;;5042795;28;20045;-76
2021/04/01 00:21:43;;;;;;;16.52;6.63;;;15.80;45.30;;;;;;5042365;28;20144;-76
2021/04/01 00:24:09;;;;;;;17.23;7.47;;;15.70;45.70;;;;;;5021620;28;20056;-76
2021/04/01 00:26:36;;;;;;;15.20;7.25;;;15.70;46.00;;;;;;5049727;28;20049;-77
2021/04/01 00:29:03;;;;;;;17.02;7.85;;;15.90;45.60;;;;;;5043844;28;20041;-77
2021/04/01 00:31:29;;;;;;;18.08;7.13;;;15.90;46.20;;;;;;5047682;28;20389;-77
2021/04/01 00:33:56;;;;;;;15.57;7.68;;;16.00;45.60;;;;;;5046359;28;20045;-78
2021/04/01 00:36:23;;;;;;;12.65;7.20;;;16.00;45.90;;;;;;5039978;28;20080;-78
2021/04/01 00:38:49;;;;;;;14.32;7.57;;;16.00;45.70;;;;;;5044704;28;20056;-78
2021/04/01 00:41:16;;;;;;;13.48;6.93;;;16.00;45.70;;;;;;5036770;28;20118;-77
2021/04/01 00:43:42;;;;;;;12.05;6.47;;;16.00;45.90;;;;;;5051165;28;20049;-77
2021/04/01 00:46:09;;;;;;;20.05;6.65;;;16.00;45.90;;;;;;5047917;28;20041;-78
2021/04/01 00:48:36;;;;;;;11.52;6.20;;;16.00;45.80;;;;;;5042331;28;20124;-78
2021/04/01 00:51:02;;;;;;;13.93;6.35;;;16.20;46.10;;;;;;5044028;28;20056;-77
2021/04/01 00:53:29;;;;;;;13.90;7.43;;;16.30;45.50;;;;;;5037008;28;20057;-78
2021/04/01 00:55:55;;;;;;;12.65;6.28;;;16.30;45.60;;;;;;5039664;28;20050;-79
2021/04/01 00:58:22;;;;;;;16.98;5.57;;;16.10;45.50;;;;;;5044360;28;20041;-79
2021/04/01 01:00:59;;;;;;;10.85;5.63;;;16.00;45.80;;;;;;5039556;28;20088;-79
2021/04/01 01:03:25;;;;;;;11.13;5.93;;;15.90;45.80;;;;;;5046884;28;20048;-78
2021/04/01 01:05:51;;;;;;;12.05;5.38;;;16.00;45.90;;;;;;5045605;28;20041;-78
2021/04/01 01:08:18;;;;;;;12.77;5.57;;;16.10;45.80;;;;;;5039701;28;20461;-78
2021/04/01 01:10:47;;;;;;;14.17;5.30;;;16.10;45.70;;;;;;5044574;28;20079;-78
2021/04/01 01:13:14;;;;;;;13.70;5.93;;;16.20;45.60;;;;;;5046816;28;20485;-78
2021/04/01 01:15:40;;;;;;;12.70;5.80;;;16.00;45.80;;;;;;5046213;28;20463;-78
2021/04/01 01:18:07;;;;;;;12.88;5.28;;;16.00;46.00;;;;;;5045255;28;20492;-78
2021/04/01 01:20:34;;;;;;;12.52;5.50;;;16.00;46.00;;;;;;5038026;28;20049;-78
2021/04/01 01:23:17;;;;;;;15.48;5.50;;;16.00;46.10;;;;;;5045716;28;20091;-78
2021/04/01 01:25:44;;;;;;;11.80;5.35;;;15.90;46.30;;;;;;5040630;28;20099;-79
2021/04/01 01:28:11;;;;;;;9.40;5.15;;;15.70;46.40;;;;;;5038997;28;20389;-79
2021/04/01 01:30:37;;;;;;;10.23;4.88;;;15.60;47.00;;;;;;5044111;28;20080;-78
2021/04/01 01:33:08;;;;;;;8.02;4.70;;;15.60;47.00;;;;;;5049844;28;20135;-78
2021/04/01 01:35:37;;;;;;;9.60;4.70;;;15.60;46.80;;;;;;5042330;28;20049;-77
2021/04/01 01:38:06;;;;;;;11.93;4.63;;;15.50;47.00;;;;;;5040231;28;20092;-78
2021/04/01 01:40:34;;;;;;;12.88;5.00;;;15.50;47.00;;;;;;5036230;28;20098;-79
2021/04/01 01:43:03;;;;;;;11.60;5.43;;;15.50;47.70;;;;;;5047770;28;20168;-79
2021/04/01 01:45:30;;;;;;;13.85;4.90;;;15.60;47.10;;;;;;5046123;28;20057;-79
2021/04/01 01:47:57;;;;;;;10.88;5.30;;;15.60;47.00;;;;;;5044363;28;20056;-79
2021/04/01 01:50:26;;;;;;;9.20;4.95;;;15.50;47.00;;;;;;5047341;28;20500;-79
2021/04/01 01:52:53;;;;;;;15.55;4.95;;;15.40;47.40;;;;;;5035327;28;20079;-78
2021/04/01 01:55:20;;;;;;;12.88;5.20;;;15.40;47.50;;;;;;5048415;28;20146;-79
2021/04/01 01:57:46;;;;;;;15.48;4.78;;;15.20;47.90;;;;;;5046148;28;20124;-79
2021/04/01 02:00:20;;;;;;;12.32;5.10;;;15.50;48.00;;;;;;5046124;28;20428;-79
2021/04/01 02:02:54;;;;;;;12.52;4.93;;;15.30;47.90;;;;;;5044216;28;20053;-79
2021/04/01 02:05:23;;;;;;;9.57;4.60;;;15.50;47.70;;;;;;5041825;28;20063;-79
2021/04/01 02:07:50;;;;;;;8.15;4.78;;;15.40;47.50;;;;;;5042655;28;20042;-79
2021/04/01 02:10:19;;;;;;;11.93;4.85;;;15.20;48.00;;;;;;5042350;28;20076;-78
2021/04/01 02:12:45;;;;;;;12.90;4.80;;;15.10;48.10;;;;;;5039340;28;20103;-78
2021/04/01 02:15:15;;;;;;;9.40;4.95;;;15.00;48.50;;;;;;5045230;28;20044;-78
2021/04/01 02:17:42;;;;;;;14.23;5.20;;;14.90;48.60;;;;;;5047304;28;20084;-77
2021/04/01 02:20:11;;;;;;;13.45;4.75;;;15.10;48.90;;;;;;5052937;28;20108;-77
2021/04/01 02:22:37;;;;;;;9.95;5.15;;;15.00;48.80;;;;;;5046732;28;20053;-78
2021/04/01 02:25:05;;;;;;;11.30;5.32;;;15.30;48.80;;;;;;5046179;28;20069;-78
2021/04/01 02:27:32;;;;;;;10.07;5.18;;;15.30;48.60;;;;;;5081403;28;20473;-79
2021/04/01 02:29:59;;;;;;;12.57;4.80;;;15.00;49.00;;;;;;5041748;28;20511;-79
2021/04/01 02:32:25;;;;;;;14.95;5.45;;;14.90;49.10;;;;;;5047088;28;20118;-79
2021/04/01 02:34:52;;;;;;;11.35;5.28;;;14.90;49.10;;;;;;5044832;28;20054;-78
2021/04/01 02:37:18;;;;;;;13.70;5.78;;;14.70;49.40;;;;;;5048977;28;20057;-78
2021/04/01 02:39:45;;;;;;;12.52;5.25;;;14.80;49.30;;;;;;5043432;28;20119;-78
2021/04/01 02:42:11;;;;;;;7.30;4.65;;;14.80;49.50;;;;;;5047618;28;20053;-78
2021/04/01 02:44:38;;;;;;;11.98;5.75;;;15.10;49.90;;;;;;5039494;28;20069;-78
2021/04/01 02:47:05;;;;;;;10.85;5.30;;;15.20;49.00;;;;;;5061320;28;20053;-77
2021/04/01 02:49:32;;;;;;;16.25;5.53;;;15.20;49.10;;;;;;5046891;28;20063;-76
2021/04/01 02:51:59;;;;;;;9.68;5.47;;;14.80;49.30;;;;;;5044915;28;20081;-78
2021/04/01 02:54:25;;;;;;;8.88;5.22;;;14.50;49.90;;;;;;5049169;28;20045;-78
2021/04/01 02:56:52;;;;;;;15.20;5.50;;;14.50;50.40;;;;;;5051814;28;20049;-78
2021/04/01 02:59:18;;;;;;;12.98;5.40;;;14.30;50.60;;;;;;5048251;28;20124;-78
2021/04/01 03:01:45;;;;;;;9.70;4.93;;;14.80;51.00;;;;;;5048321;28;20067;-78
2021/04/01 03:04:12;;;;;;;12.77;5.78;;;15.10;50.40;;;;;;5042104;28;20382;-79
2021/04/01 03:06:38;;;;;;;9.57;4.97;;;15.10;49.40;;;;;;5049728;28;20080;-80
2021/04/01 03:09:05;;;;;;;11.05;5.93;;;15.20;50.00;;;;;;5047278;28;20049;-79
2021/04/01 03:11:31;;;;;;;15.50;5.93;;;15.30;49.80;;;;;;5049831;28;20045;-80
2021/04/01 03:13:57;;;;;;;14.52;6.32;;;15.30;49.50;;;;;;5048838;28;20045;-80
2021/04/01 03:16:25;;;;;;;10.30;5.35;;;14.80;50.20;;;;;;5052028;28;20056;-79
2021/04/01 03:18:52;;;;;;;14.05;7.15;;;14.70;50.90;;;;;;5043179;28;20104;-80
2021/04/01 03:21:18;;;;;;;19.35;8.27;;;14.40;50.70;;;;;;5039601;28;20048;-79
2021/04/01 03:23:45;;;;;;;15.38;7.95;;;14.30;51.10;;;;;;5051533;28;20049;-79
2021/04/01 03:26:11;;;;;;;18.48;9.48;;;14.10;51.60;;;;;;5049490;28;20057;-79
2021/04/01 03:28:38;;;;;;;19.55;10.02;;;14.00;51.50;;;;;;5040233;28;20544;-80
2021/04/01 03:31:05;;;;;;;24.77;9.20;;;13.80;51.80;;;;;;5049547;28;20052;-78
2021/04/01 03:33:32;;;;;;;15.48;8.70;;;13.80;52.10;;;;;;5048884;28;20045;-78
2021/04/01 03:35:59;;;;;;;13.90;7.15;;;13.70;51.90;;;;;;5050681;28;20095;-78
2021/04/01 03:38:27;;;;;;;16.73;7.53;;;13.70;52.10;;;;;;5051693;28;20412;-80
2021/04/01 03:40:55;;;;;;;15.00;6.57;;;13.90;51.90;;;;;;5053897;28;20135;-81
2021/04/01 03:43:25;;;;;;;11.18;5.88;;;13.90;51.50;;;;;;5047312;28;20041;-80
2021/04/01 03:45:51;;;;;;;;;;;13.90;51.50;;;;;;5048192;28;20479;-79
2021/04/01 03:48:18;;;;;;;9.40;5.90;;;13.90;51.50;;;;;;5050593;28;19920;-80
2021/04/01 03:50:45;;;;;;;11.35;6.25;;;13.90;51.70;;;;;;5048050;28;20128;-80
2021/04/01 03:53:12;;;;;;;13.27;5.95;;;13.90;51.70;;;;;;5047712;28;20045;-80
2021/04/01 03:55:42;;;;;;;16.50;6.18;;;13.90;51.80;;;;;;5051233;28;20048;-80
2021/04/01 04:01:12;;;;;;;18.60;5.85;;;14.00;51.80;;;;;;5037136;28;19925;-82
2021/04/01 04:14:30;;;;;;;14.23;6.53;;;14.40;50.90;;;;;;5042391;28;20073;-80
2021/04/01 04:16:57;;;;;;;18.35;6.63;;;14.10;51.30;;;;;;5047466;28;20049;-80
2021/04/01 04:19:23;;;;;;;14.27;6.97;;;14.10;51.50;;;;;;5043628;28;20045;-80
2021/04/01 04:21:49;;;;;;;15.52;6.38;;;14.10;51.40;;;;;;5042044;28;20099;-79
2021/04/01 04:24:16;;;;;;;11.50;6.32;;;14.10;51.40;;;;;;5040055;28;20483;-80
2021/04/01 04:26:42;;;;;;;17.55;7.05;;;14.00;51.70;;;;;;5041634;28;20186;-80
2021/04/01 04:29:09;;;;;;;17.20;6.38;;;13.80;51.90;;;;;;5049147;28;20049;-80
2021/04/01 04:31:35;;;;;;;16.98;6.97;;;13.90;52.10;;;;;;5039993;28;20095;-80
2021/04/01 04:34:02;;;;;;;13.40;6.88;;;13.70;52.60;;;;;;5043872;28;20049;-79
2021/04/01 04:36:28;;;;;;;17.90;7.25;;;13.60;52.70;;;;;;5050261;28;20049;-79
2021/04/01 04:38:54;;;;;;;17.42;7.47;;;13.60;53.00;;;;;;5040415;28;20045;-79
2021/04/01 04:41:21;;;;;;;12.90;6.95;;;13.70;52.70;;;;;;5038862;28;20037;-79
2021/04/01 04:43:47;;;;;;;17.23;6.97;;;13.60;52.90;;;;;;5048187;28;20040;-79
2021/04/01 04:46:16;;;;;;;16.70;7.07;;;13.60;53.10;;;;;;5046767;28;20076;-79
2021/04/01 04:48:42;;;;;;;15.95;6.53;;;13.80;52.60;;;;;;5040068;28;20126;-79
2021/04/01 04:51:08;;;;;;;13.30;7.30;;;14.00;52.60;;;;;;5045081;28;20041;-79
2021/04/01 04:53:35;;;;;;;12.60;6.45;;;14.10;52.30;;;;;;5045215;28;20057;-79
2021/04/01 04:58:41;;;;;;;14.27;7.13;;;14.10;52.40;;;;;;5045200;28;20052;-79
2021/04/01 05:06:54;;;;;;;18.77;6.22;;;14.10;52.60;;;;;;5044352;28;20330;-80
2021/04/01 05:09:21;;;;;;;15.13;6.25;;;13.90;52.40;;;;;;5035523;28;20087;-79
2021/04/01 05:11:49;;;;;;;13.43;5.70;;;14.00;52.80;;;;;;5041421;28;20092;-80
2021/04/01 05:14:16;;;;;;;17.02;6.13;;;14.20;52.40;;;;;;5047240;28;20044;-80
2021/04/01 05:16:43;;;;;;;14.68;6.65;;;14.10;52.10;;;;;;5037596;28;20107;-81
2021/04/01 05:19:12;;;;;;;14.23;5.93;;;13.80;52.80;;;;;;5046199;28;20149;-80
2021/04/01 05:24:16;;;;;;;11.68;5.85;;;13.90;52.80;;;;;;5040114;28;20496;-80
2021/04/01 05:29:32;;;;;;;11.63;6.05;;;13.90;52.60;;;;;;5037121;28;20045;-80
2021/04/01 05:31:59;;;;;;;15.55;6.13;;;13.90;52.60;;;;;;5050720;28;20496;-80
2021/04/01 05:34:27;;;;;;;11.10;5.70;;;14.20;52.40;;;;;;5045120;28;20531;-79
2021/04/01 05:36:54;;;;;;;12.63;5.70;;;14.30;52.00;;;;;;5038358;28;20412;-80
2021/04/01 05:39:27;;;;;;;18.25;5.72;;;14.30;52.10;;;;;;5040240;28;20100;-80
2021/04/01 05:41:56;;;;;;;11.23;5.43;;;14.40;52.00;;;;;;5039018;28;20412;-80
2021/04/01 05:44:28;;;;;;;13.25;5.40;;;14.20;52.20;;;;;;5040219;28;20045;-79
2021/04/01 05:47:05;;;;;;;9.85;5.30;;;14.20;52.20;;;;;;5037658;28;20107;-79
2021/04/01 05:50:05;;;;;;;11.52;5.30;;;14.00;52.60;;;;;;5040654;28;20451;-80
2021/04/01 06:05:51;;;;;;;18.02;5.53;;;16.10;50.10;;;;;;5047261;28;20082;-82
2021/04/01 06:08:24;;;;;;;16.40;6.97;;;16.60;49.00;;;;;;5074188;28;20400;-81
2021/04/01 06:10:51;;;;;;;20.77;7.00;;;16.40;48.70;;;;;;5048593;28;20049;-81
2021/04/01 06:13:22;;;;;;;15.10;8.13;;;16.70;49.30;;;;;;5044804;28;20506;-80
2021/04/01 06:15:51;;;;;;;20.92;8.43;;;16.40;49.00;;;;;;5049018;28;20037;-80
2021/04/01 06:18:20;;;;;;;14.25;8.52;;;16.20;49.40;;;;;;5043803;28;20480;-78
2021/04/01 06:20:51;;;;;;;25.25;8.13;;;16.40;49.90;;;;;;5047367;28;20697;-76
2021/04/01 06:23:28;;;;;;;17.35;8.15;;;17.30;48.70;;;;;;5046975;28;20160;-76
2021/04/01 06:25:57;;;;;;;17.35;7.43;;;17.40;48.10;;;;;;5046076;28;20208;-75
2021/04/01 06:28:36;;;;;;;16.02;7.65;;;17.70;47.90;;;;;;5039739;28;20099;-76
2021/04/01 06:31:04;;;;;;;23.42;7.72;;;17.60;47.60;;;;;;5042802;28;20423;-76
2021/04/01 06:33:41;;;;;;;17.73;7.55;;;17.20;48.00;;;;;;5042563;28;20057;-76
2021/04/01 06:36:19;;;;;;;21.33;7.88;;;17.20;48.60;;;;;;5044633;28;20083;-75
2021/04/01 06:38:46;;;;;;;17.02;7.47;;;16.70;48.60;;;;;;5047179;28;20152;-78
2021/04/01 06:41:39;;;;;;;15.20;7.22;;;16.00;49.90;;;;;;5039140;28;20109;-76
2021/04/01 06:44:26;;;;;;;16.15;7.45;;;15.90;50.50;;;;;;5047788;28;20087;-76
2021/04/01 06:47:04;;;;;;;16.95;7.15;;;15.80;51.00;;;;;;5045043;28;20052;-76
2021/04/01 06:52:30;;;;;;;18.95;7.78;;;16.00;51.00;;;;;;5038632;28;20127;-76
2021/04/01 06:55:32;;;;;;;19.88;7.03;;;16.80;49.60;;;;;;5048106;28;20048;-76
2021/04/01 06:58:06;;;;;;;20.38;7.00;;;17.50;48.80;;;;;;5043969;28;20057;-75
2021/04/01 07:03:16;;;;;;;12.15;6.40;;;16.80;49.00;;;;;;5047284;28;20060;-78
2021/04/01 07:08:39;;;;;;;15.07;6.53;;;16.40;49.90;;;;;;5037137;28;20037;-76
2021/04/01 07:11:12;;;;;;;20.63;6.68;;;15.80;51.00;;;;;;5050685;28;20056;-77
2021/04/01 07:13:49;;;;;;;14.60;6.47;;;15.90;50.70;;;;;;5043919;28;20057;-79
2021/04/01 07:17:07;;;;;;;12.32;6.32;;;16.10;50.70;;;;;;5065852;28;20056;-77
2021/04/01 07:47:20;;;;;;;12.13;6.65;;;17.80;50.30;;;;;;5028600;28;20077;-71
2021/04/01 07:49:49;;;;;;;13.73;7.03;;;17.60;47.80;;;;;;5031725;28;20182;-73
2021/04/01 07:52:21;;;;;;;18.50;7.22;;;17.90;49.70;;;;;;5031544;28;20144;-71
2021/04/01 08:03:21;;;;;;;29.25;6.03;;;19.70;45.40;;;;;;5018080;28;20309;-72
2021/04/01 08:05:45;;;;;;;12.68;6.13;;;19.90;45.00;;;;;;5032711;28;20826;-71
2021/04/01 08:08:15;;;;;;;9.82;5.82;;;19.80;46.20;;;;;;5033337;28;20060;-71
2021/04/01 08:10:43;;;;;;;12.13;5.97;;;19.00;46.30;;;;;;5032808;28;20459;-71
2021/04/01 08:13:13;;;;;;;13.68;6.00;;;18.70;46.60;;;;;;5030905;28;20124;-71
2021/04/01 08:15:46;;;;;;;13.18;6.55;;;19.10;47.60;;;;;;5029445;28;20148;-72
2021/04/01 08:20:46;;;;;;;16.75;6.20;;;19.00;46.20;;;;;;5027246;28;21122;-73
2021/04/01 08:23:41;;;;;;;15.63;6.30;;;19.00;46.80;;;;;;5054271;28;20045;-72
2021/04/01 08:35:25;;;;;;;12.90;5.95;;;19.60;46.70;;;;;;5031743;28;20590;-73
2021/04/01 08:38:13;;;;;;;13.55;5.65;;;19.90;45.10;;;;;;5033056;28;20060;-73
2021/04/01 08:41:17;;;;;;;15.18;6.43;;;20.70;44.40;;;;;;5033039;28;20060;-72
2021/04/01 08:44:09;;;;;;;17.15;6.63;;;20.40;43.90;;;;;;5032286;28;20045;-73
2021/04/01 08:47:17;;;;;;;14.32;6.95;;;20.60;44.70;;;;;;5022624;28;20718;-72
2021/04/01 08:49:59;;;;;;;;;;;21.30;42.80;;;;;;5032292;28;20384;-72
2021/04/01 08:52:48;;;;;;;18.25;5.50;;;21.10;42.30;;;;;;5028262;28;20403;-72
2021/04/01 08:55:17;;;;;;;17.23;8.23;;;21.00;42.60;;;;;;5032601;28;20076;-71
2021/04/01 08:58:03;;;;;;;18.55;5.40;;;20.80;42.70;;;;;;5034953;28;20064;-71
2021/04/01 09:00:31;;;;;;;17.20;7.32;;;21.10;43.00;;;;;;5031829;28;20119;-71
2021/04/01 09:02:59;;;;;;;18.17;7.07;;;20.60;42.70;;;;;;5029748;28;20059;-72
2021/04/01 09:05:26;;;;;;;14.63;6.95;;;20.90;43.40;;;;;;5034296;28;20050;-72
2021/04/01 09:08:05;;;;;;;14.20;7.50;;;20.50;44.40;;;;;;5031652;28;20133;-71
2021/04/01 09:13:16;;;;;;;16.63;7.15;;;21.30;43.50;;;;;;5030258;28;20056;-72
2021/04/01 09:18:44;;;;;;;17.70;7.70;;;21.40;42.40;;;;;;5029263;28;20059;-71
2021/04/01 09:21:11;;;;;;;22.52;7.22;;;21.40;42.60;;;;;;5023453;28;20052;-73
2021/04/01 09:23:38;;;;;;;18.20;7.13;;;20.90;43.30;;;;;;5031754;28;20063;-72
2021/04/01 09:26:07;;;;;;;16.40;6.88;;;21.00;43.50;;;;;;5033030;28;20074;-72
2021/04/01 09:28:37;;;;;;;17.67;8.43;;;21.70;42.80;;;;;;5032442;28;20045;-72
2021/04/01 09:31:05;;;;;;;;;;;21.90;42.40;;;;;;5031530;28;21227;-69
2021/04/01 09:33:33;;;;;;;18.10;7.90;;;21.30;42.10;;;;;;5029134;28;19929;-69
2021/04/01 09:36:07;;;;;;;19.65;8.05;;;21.50;42.10;;;;;;5031901;28;20488;-70
2021/04/01 09:38:39;;;;;;;20.48;7.10;;;22.30;41.20;;;;;;5032290;28;20060;-70
2021/04/01 09:41:07;;;;;;;17.75;6.93;;;22.60;40.20;;;;;;5030488;28;20073;-70
2021/04/01 09:43:34;;;;;;;15.38;6.90;;;23.00;40.30;;;;;;5032913;28;20064;-70
2021/04/01 09:46:13;;;;;;;20.50;7.38;;;24.40;39.40;;;;;;5035473;28;21088;-70
2021/04/01 09:48:45;;;;;;;18.35;8.38;;;23.90;38.60;;;;;;5031059;28;20055;-70
2021/04/01 09:51:21;;;;;;;20.92;8.63;;;23.90;38.90;;;;;;5032024;28;20479;-69
2021/04/01 09:53:55;;;;;;;24.73;8.68;;;24.30;38.30;;;;;;5020023;28;20132;-69
2021/04/01 09:56:24;;;;;;;16.13;8.23;;;25.10;37.40;;;;;;5029177;28;20080;-67
2021/04/01 09:58:52;;;;;;;22.88;9.75;;;25.20;36.80;;;;;;5031842;28;20060;-67
2021/04/01 10:01:27;;;;;;;17.08;9.52;;;24.20;37.90;;;;;;5032046;28;20142;-72
2021/04/01 10:04:04;;;;;;;;;;;23.00;39.10;;;;;;5031213;28;20040;-71
2021/04/01 10:06:43;;;;;;;25.65;11.30;;;22.50;39.80;;;;;;5032910;28;20406;-71
2021/04/01 10:09:18;;;;;;;18.20;10.70;;;22.80;40.00;;;;;;5034316;28;20053;-71
2021/04/01 10:12:00;;;;;;;22.23;10.30;;;23.30;39.90;;;;;;5032657;28;20152;-73
2021/04/01 10:14:28;;;;;;;22.52;11.75;;;23.40;38.70;;;;;;5028351;28;20152;-71
2021/04/01 10:17:14;;;;;;;23.45;10.43;;;24.30;38.20;;;;;;5030239;28;20140;-72
2021/04/01 10:19:43;;;;;;;24.45;12.55;;;24.10;38.10;;;;;;5030320;28;20111;-71
2021/04/01 10:22:39;;;;;;;28.25;11.35;;;24.10;38.50;;;;;;5031551;28;20079;-71
2021/04/01 10:25:23;;;;;;;26.15;12.45;;;24.60;38.00;;;;;;5030214;28;20513;-71
2021/04/01 10:27:53;;;;;;;26.00;12.88;;;24.70;37.70;;;;;;5043537;28;20169;-72
2021/04/01 10:30:24;;;;;;;;;;;24.50;38.30;;;;;;5044213;28;20077;-70
2021/04/01 10:32:53;;;;;;;;;;;23.90;38.80;;;;;;5044035;28;19948;-69
2021/04/01 10:35:24;;;;;;;29.27;13.18;;;23.30;39.60;;;;;;5045580;28;20027;-71
2021/04/01 10:37:56;;;;;;;32.83;14.13;;;23.10;39.60;;;;;;5045175;28;20761;-71
2021/04/01 10:40:23;;;;;;;26.25;14.23;;;23.30;39.70;;;;;;5047031;28;20122;-72
2021/04/01 10:43:06;;;;;;;30.05;14.52;;;23.30;39.90;;;;;;5050328;28;20060;-70
2021/04/01 10:45:40;;;;;;;35.58;15.77;;;23.50;39.70;;;;;;5048255;28;20100;-70
2021/04/01 10:48:21;;;;;;;37.80;15.65;;;23.70;39.60;;;;;;5048768;28;20685;-71
2021/04/01 10:50:50;;;;;;;29.98;14.98;;;23.80;39.70;;;;;;5046094;28;20051;-71
2021/04/01 10:53:22;;;;;;;32.15;15.30;;;24.00;39.20;;;;;;5046839;28;20350;-70
2021/04/01 10:55:52;;;;;;;32.60;15.13;;;24.50;38.90;;;;;;5049207;28;20623;-70
2021/04/01 10:58:18;;;;;;;36.65;17.65;;;24.80;38.00;;;;;;5048370;28;20072;-72
2021/04/01 11:00:53;;;;;;;36.85;16.85;;;24.30;38.30;;;;;;5048699;28;20069;-71
2021/04/01 11:03:24;;;;;;;42.05;18.95;;;24.50;38.60;;;;;;5040880;28;20049;-70
2021/04/01 11:05:51;;;;;;;44.38;18.08;;;24.50;38.00;;;;;;5049276;28;20193;-69
2021/04/01 11:08:19;;;;;;;41.67;18.30;;;24.70;37.90;;;;;;5047044;28;20126;-68
2021/04/01 11:10:56;;;;;;;52.53;17.58;;;25.00;37.00;;;;;;5045724;28;20098;-69
2021/04/01 11:13:32;;;;;;;34.10;16.15;;;25.10;37.20;;;;;;5047535;28;20076;-69
2021/04/01 11:15:59;;;;;;;38.33;16.52;;;24.80;36.60;;;;;;5044397;28;20049;-68
2021/04/01 11:18:28;;;;;;;39.55;16.02;;;24.80;36.10;;;;;;5047177;28;20053;-68
2021/04/01 11:20:56;;;;;;;28.55;13.65;;;25.00;35.40;;;;;;5044265;28;20052;-68
2021/04/01 11:23:25;;;;;;;48.10;17.00;;;25.20;37.10;;;;;;5046548;28;20057;-68
2021/04/01 11:25:55;;;;;;;36.53;16.17;;;25.60;35.40;;;;;;5049273;28;20464;-68
2021/04/01 11:28:42;;;;;;;88.60;32.70;;;26.40;33.80;;;;;;5042617;28;20136;-69
2021/04/01 11:31:10;;;;;;;87.38;32.53;;;27.40;33.40;;;;;;5030059;28;20138;-68
2021/04/01 11:33:37;;;;;;;117.47;42.20;;;28.40;32.40;;;;;;5050688;28;20707;-67
2021/04/01 11:36:14;;;;;;;55.38;22.95;;;28.50;32.90;;;;;;5044825;28;20164;-68
2021/04/01 11:38:48;;;;;;;48.60;19.42;;;29.00;30.70;;;;;;5048961;28;20104;-68
2021/04/01 11:41:26;;;;;;;48.85;21.50;;;29.70;30.20;;;;;;5047736;28;20049;-68
2021/04/01 11:43:56;;;;;;;78.35;29.38;;;29.80;30.00;;;;;;5041199;28;20156;-68
2021/04/01 11:46:28;;;;;;;43.03;19.70;;;29.90;30.30;;;;;;5031533;28;20464;-70
2021/04/01 11:48:57;;;;;;;51.38;20.80;;;29.60;30.30;;;;;;5033022;28;20060;-69
2021/04/01 11:51:29;;;;;;;40.05;20.13;;;29.10;31.90;;;;;;5030548;28;20061;-70
2021/04/01 11:53:56;;;;;;;46.53;20.40;;;28.20;32.70;;;;;;5035578;28;20690;-69
2021/04/01 11:56:32;;;;;;;57.97;23.42;;;28.00;33.30;;;;;;5032654;28;20757;-69
2021/04/01 11:59:10;;;;;;;47.55;20.23;;;27.40;33.50;;;;;;5033533;28;20388;-68
2021/04/01 12:01:58;;;;;;;38.50;17.90;;;26.50;33.80;;;;;;5035199;28;20081;-69
2021/04/01 12:04:28;;;;;;;64.53;25.33;;;26.10;34.80;;;;;;5035846;28;20145;-69
2021/04/01 12:06:55;;;;;;;66.53;25.23;;;26.20;35.20;;;;;;5028437;28;20056;-69
2021/04/01 12:09:23;;;;;;;44.38;18.90;;;26.10;35.20;;;;;;5032218;28;20077;-66
2021/04/01 12:11:49;;;;;;;45.88;19.38;;;25.60;35.40;;;;;;5031594;28;20155;-67
2021/04/01 12:14:17;;;;;;;51.70;22.88;;;25.60;35.70;;;;;;5032173;28;20140;-67
2021/04/01 12:16:44;;;;;;;49.05;19.55;;;25.40;36.40;;;;;;5032055;28;20895;-64
2021/04/01 12:19:11;;;;;;;51.35;22.23;;;25.40;35.50;;;;;;5034384;28;20486;-65
2021/04/01 12:21:38;;;;;;;49.72;21.85;;;25.40;35.20;;;;;;5033795;28;20056;-65
2021/04/01 12:24:06;;;;;;;54.35;23.52;;;25.90;33.70;;;;;;5031467;28;20114;-65
2021/04/01 12:26:43;;;;;;;50.60;22.48;;;26.30;33.00;;;;;;5035836;28;20155;-66
2021/04/01 12:29:10;;;;;;;49.33;23.08;;;26.30;33.20;;;;;;5031445;28;20134;-65
2021/04/01 12:31:42;;;;;;;52.55;24.20;;;26.50;32.60;;;;;;5031625;28;20420;-65
2021/04/01 12:34:11;;;;;;;56.42;25.95;;;27.00;32.50;;;;;;5033008;28;20236;-66
2021/04/01 12:36:40;;;;;;;56.67;22.63;;;27.60;31.70;;;;;;5033099;28;20053;-66
2021/04/01 12:39:10;;;;;;;60.80;25.15;;;28.10;30.80;;;;;;5032858;28;20619;-65
2021/04/01 12:41:38;;;;;;;;;;;28.40;30.30;;;;;;5034463;28;20145;-65
2021/04/01 12:44:05;;;;;;;50.45;21.92;;;28.80;29.80;;;;;;5034991;28;20028;-66
2021/04/01 12:46:45;;;;;;;65.60;28.23;;;28.60;29.10;;;;;;5033224;28;20164;-66
2021/04/01 12:49:18;;;;;;;48.45;19.98;;;29.40;29.70;;;;;;5036502;28;20084;-66
2021/04/01 12:51:51;;;;;;;65.05;26.42;;;29.10;28.40;;;;;;5034172;28;20159;-65
2021/04/01 12:54:24;;;;;;;83.47;32.70;;;29.10;29.30;;;;;;5032306;28;20131;-67
2021/04/01 12:56:58;;;;;;;82.00;32.28;;;29.50;29.00;;;;;;5035560;28;20143;-66
2021/04/01 12:59:39;;;;;;;65.18;27.33;;;29.80;28.80;;;;;;5035960;28;20507;-65
2021/04/01 13:02:11;;;;;;;46.88;21.98;;;29.80;28.30;;;;;;5033960;28;20181;-66
2021/04/01 13:04:41;;;;;;;50.08;23.88;;;30.40;28.50;;;;;;5033444;28;20139;-66
2021/04/01 13:09:45;;;;;;;60.78;26.95;;;30.40;28.90;;;;;;5030041;28;20044;-67
2021/04/01 13:12:14;;;;;;;52.17;23.08;;;30.90;28.60;;;;;;5029581;28;21174;-67
2021/04/01 13:14:41;;;;;;;83.57;31.85;;;30.70;28.50;;;;;;5030690;28;20136;-68
2021/04/01 13:17:08;;;;;;;57.90;24.95;;;31.10;28.70;;;;;;5030560;28;20073;-66
2021/04/01 13:19:36;;;;;;;59.70;24.42;;;31.30;28.40;;;;;;5029675;28;20060;-67
2021/04/01 13:22:11;;;;;;;49.03;20.95;;;31.70;28.10;;;;;;5029681;28;20064;-68
2021/04/01 13:27:17;;;;;;;78.72;32.55;;;31.20;28.10;;;;;;5026322;28;20048;-67
2021/04/01 13:29:51;;;;;;;61.13;24.70;;;31.30;29.00;;;;;;5027836;28;20130;-67
2021/04/01 13:32:31;;;;;;;78.35;29.55;;;31.40;28.80;;;;;;5029214;28;20141;-67
2021/04/01 13:35:15;;;;;;;57.17;25.35;;;31.60;29.00;;;;;;5027950;28;20057;-69
2021/04/01 13:37:57;;;;;;;44.53;20.20;;;31.60;28.60;;;;;;5037666;28;20546;-69
2021/04/01 13:40:24;;;;;;;52.80;23.67;;;31.40;28.10;;;;;;5036291;28;20461;-68
2021/04/01 13:43:00;;;;;;;52.67;22.70;;;30.90;29.10;;;;;;5028297;28;20072;-69
2021/04/01 13:45:26;;;;;;;46.83;21.33;;;30.20;29.70;;;;;;5027536;28;20120;-67
2021/04/01 13:48:03;;;;;;;42.45;21.33;;;30.00;29.70;;;;;;5028096;28;20079;-68
2021/04/01 13:50:32;;;;;;;57.20;23.83;;;29.50;30.00;;;;;;5028403;28;20772;-69
2021/04/01 13:55:53;;;;;;;56.05;24.10;;;29.50;30.10;;;;;;5027215;28;20080;-68
2021/04/01 14:09:47;;;;;;;28.70;14.48;;;29.60;28.60;;;;;;5025565;28;20410;-67
2021/04/01 14:12:19;;;;;;;56.85;22.73;;;29.40;28.00;;;;;;5024300;28;20052;-67
2021/04/01 14:14:46;;;;;;;34.58;15.80;;;29.30;29.10;;;;;;5027626;28;20046;-68
2021/04/01 14:17:14;;;;;;;39.10;15.88;;;29.00;28.10;;;;;;5033910;28;20253;-67
2021/04/01 14:19:42;;;;;;;54.42;19.95;;;29.20;28.00;;;;;;5030883;28;20049;-67
2021/04/01 14:22:08;;;;;;;53.40;20.13;;;28.90;29.20;;;;;;5037597;28;20132;-68
2021/04/01 14:24:51;;;;;;;57.03;19.35;;;28.80;29.20;;;;;;5030110;28;20049;-68
2021/04/01 14:27:33;;;;;;;49.15;15.60;;;28.80;29.00;;;;;;5032484;28;20442;-68
2021/04/01 14:30:01;;;;;;;37.80;15.13;;;28.40;28.80;;;;;;5021728;28;20358;-68
2021/04/01 14:32:29;;;;;;;36.95;14.95;;;28.30;28.50;;;;;;5032947;28;20127;-68
2021/04/01 14:35:00;;;;;;;37.30;14.55;;;28.30;27.80;;;;;;5035399;28;20061;-69
2021/04/01 14:37:33;;;;;;;41.15;17.33;;;27.60;27.90;;;;;;5031279;28;20080;-68
2021/04/01 14:40:04;;;;;;;22.88;9.73;;;27.50;28.80;;;;;;5032218;28;20061;-69
2021/04/01 14:42:44;;;;;;;25.95;10.50;;;27.50;25.80;;;;;;5031977;28;20060;-69
2021/04/01 14:45:11;;;;;;;30.70;11.38;;;27.30;26.70;;;;;;5032771;28;20128;-68
2021/04/01 14:47:39;;;;;;;45.70;13.75;;;27.20;26.70;;;;;;5034060;28;20049;-69
2021/04/01 14:50:09;;;;;;;35.80;13.13;;;27.00;26.90;;;;;;5034895;28;20586;-68
2021/04/01 14:52:36;;;;;;;27.27;10.03;;;27.00;27.00;;;;;;5031353;28;20054;-68
2021/04/01 14:55:06;;;;;;;31.60;9.70;;;26.70;26.00;;;;;;5033795;28;20980;-68
2021/04/01 14:57:35;;;;;;;34.93;10.13;;;26.40;26.00;;;;;;5035631;28;20135;-69